Time;durP1;ratioP1;P1;durP2;ratioP2;P2;SDS_P1;SDS_P2;PMS_P1;PMS_P2;Temp;Humidity;BMP_temperature;BMP_pressure;BME280_temperature;BME280_humidity;BME280_pressure;Samples;Min_cycle;Max_cycle;Signal;HPM_P1;HPM_P2
2023/07/28 00:01:02;;;;;;;3.10;2.80;;;;;;;14.29;52.29;94895.28;5073515;28;20395;-75
2023/07/28 00:03:28;;;;;;;3.40;3.10;;;;;;;14.19;52.18;94875.38;5073693;28;20036;-75
2023/07/28 00:05:53;;;;;;;3.53;3.20;;;;;;;14.17;52.33;94880.75;5073177;28;20430;-75
2023/07/28 00:08:19;;;;;;;3.58;2.80;;;;;;;13.99;52.86;94869.47;5071597;28;20419;-75
2023/07/28 00:10:44;;;;;;;3.85;2.85;;;;;;;14.07;52.33;94853.88;5073422;28;20424;-76
2023/07/28 00:13:09;;;;;;;3.85;3.35;;;;;;;14.23;52.36;94889.78;5055206;28;20490;-76
2023/07/28 00:15:35;;;;;;;3.63;3.00;;;;;;;14.14;52.37;94888.88;5072717;28;20031;-76
2023/07/28 00:18:01;;;;;;;3.33;3.00;;;;;;;14.05;52.59;94879.31;5054874;28;20082;-75
2023/07/28 00:20:27;;;;;;;3.42;2.90;;;;;;;14.06;52.84;94880.97;5072910;28;20548;-76
2023/07/28 00:22:53;;;;;;;3.72;2.88;;;;;;;13.89;53.26;94879.13;5071783;28;20036;-75
2023/07/28 00:25:18;;;;;;;3.75;3.13;;;;;;;13.80;53.52;94868.59;5071552;28;20028;-76
2023/07/28 00:27:43;;;;;;;5.95;2.90;;;;;;;13.90;53.31;94875.56;5071649;28;20036;-76
2023/07/28 00:30:10;;;;;;;6.15;3.08;;;;;;;13.95;53.19;94875.94;5054966;28;20028;-76
2023/07/28 00:32:36;;;;;;;3.40;3.05;;;;;;;13.89;53.56;94873.91;5038322;28;20114;-75
2023/07/28 00:35:01;;;;;;;5.03;2.80;;;;;;;13.90;53.31;94875.56;5037973;28;20483;-75
2023/07/28 00:37:27;;;;;;;3.30;2.85;;;;;;;13.80;53.18;94866.00;5072631;28;20056;-76
2023/07/28 00:39:52;;;;;;;4.05;3.13;;;;;;;13.74;53.51;94884.03;5054682;28;20421;-75
2023/07/28 00:42:18;;;;;;;3.35;2.88;;;;;;;13.72;53.73;94878.94;5072643;28;20040;-76
2023/07/28 00:44:43;;;;;;;4.15;3.22;;;;;;;13.63;53.88;94882.41;5072543;28;20040;-75
2023/07/28 00:47:08;;;;;;;6.47;3.00;;;;;;;13.61;53.84;94876.50;5071272;28;20048;-76
2023/07/28 00:49:34;;;;;;;3.75;3.35;;;;;;;13.46;54.18;94870.13;5072269;28;20074;-76
2023/07/28 00:51:59;;;;;;;3.72;3.03;;;;;;;13.42;53.95;94874.81;5041950;28;20032;-75
2023/07/28 00:54:25;;;;;;;4.05;2.97;;;;;;;13.36;54.36;94881.41;5074277;28;20027;-75
2023/07/28 00:56:50;;;;;;;3.63;3.10;;;;;;;13.44;54.33;94883.31;5091262;28;20032;-75
2023/07/28 00:59:16;;;;;;;4.55;3.60;;;;;;;13.48;54.43;94887.28;5091167;28;20024;-75
2023/07/28 01:01:41;;;;;;;4.60;3.33;;;;;;;13.55;54.19;94890.16;5091462;28;20524;-76
2023/07/28 01:04:07;;;;;;;3.33;2.90;;;;;;;13.43;54.73;94883.44;5092720;28;20043;-76
2023/07/28 01:06:53;;;;;;;4.15;3.10;;;;;;;13.32;54.70;94880.06;5090886;28;20421;-75
2023/07/28 01:09:24;;;;;;;3.45;2.88;;;;;;;13.39;54.65;94875.91;5090856;28;20051;-75
2023/07/28 01:11:56;;;;;;;3.38;3.08;;;;;;;13.46;54.72;94888.41;5090899;28;20047;-75
2023/07/28 01:14:21;;;;;;;4.30;3.35;;;;;;;13.27;55.25;94877.06;5074066;28;20286;-76
2023/07/28 01:16:47;;;;;;;4.10;3.20;;;;;;;13.30;55.28;94884.59;5092039;28;20414;-75
2023/07/28 01:19:12;;;;;;;3.45;3.15;;;;;;;13.24;55.27;94892.16;5090777;28;20039;-76
2023/07/28 01:21:38;;;;;;;3.92;3.22;;;;;;;13.25;55.51;94878.13;5074165;28;20081;-76
2023/07/28 01:24:17;;;;;;;3.50;3.20;;;;;;;13.41;55.38;94881.81;5091040;28;20032;-76
2023/07/28 01:26:42;;;;;;;3.38;3.08;;;;;;;13.31;55.15;94859.31;5090737;28;20536;-76
2023/07/28 01:29:08;;;;;;;3.75;3.20;;;;;;;13.34;55.67;94882.50;5089874;28;20051;-75
2023/07/28 01:31:33;;;;;;;3.75;3.03;;;;;;;13.33;56.22;94886.91;5091013;28;20016;-75
2023/07/28 01:33:59;;;;;;;3.50;3.20;;;;;;;13.19;56.72;94882.13;5074046;28;20036;-75
2023/07/28 01:36:24;;;;;;;3.90;3.55;;;;;;;13.19;57.36;94885.53;5073635;28;20020;-76
2023/07/28 01:38:50;;;;;;;4.45;3.50;;;;;;;13.26;56.73;94877.19;5090658;28;20040;-76
2023/07/28 01:41:15;;;;;;;3.47;3.10;;;;;;;13.32;56.75;94868.81;5090775;28;20016;-76
2023/07/28 01:43:41;;;;;;;4.18;3.78;;;;;;;13.27;56.99;94871.84;5090923;28;20470;-76
2023/07/28 01:46:07;;;;;;;4.88;3.10;;;;;;;13.23;56.77;94867.00;5091887;28;20024;-74
2023/07/28 01:48:32;;;;;;;4.45;3.22;;;;;;;13.02;57.57;94878.47;5088939;28;20395;-76
2023/07/28 01:50:58;;;;;;;3.50;3.20;;;;;;;13.08;57.57;94882.28;5073431;28;20027;-75
2023/07/28 01:53:23;;;;;;;3.83;3.40;;;;;;;13.01;57.48;94857.72;5091829;28;20047;-75
2023/07/28 01:55:48;;;;;;;6.05;3.15;;;;;;;12.84;57.79;94873.16;5091396;28;20020;-75
2023/07/28 01:58:14;;;;;;;3.78;3.20;;;;;;;12.90;57.59;94890.84;5089425;28;20032;-75
2023/07/28 02:00:39;;;;;;;3.55;3.25;;;;;;;12.91;58.30;94881.22;5073445;28;20550;-76
2023/07/28 02:03:05;;;;;;;3.40;3.10;;;;;;;12.80;58.18;94865.72;5088710;28;20051;-75
2023/07/28 02:05:30;;;;;;;3.20;2.90;;;;;;;12.91;57.70;94871.59;5072998;28;20027;-76
2023/07/28 02:07:56;;;;;;;3.90;3.10;;;;;;;12.87;57.42;94883.28;5055802;28;20105;-75
2023/07/28 02:10:23;;;;;;;3.40;2.95;;;;;;;12.75;57.47;94889.59;5073051;28;20042;-75
2023/07/28 02:12:48;;;;;;;4.00;3.40;;;;;;;12.80;57.35;94879.59;5090103;28;20047;-76
2023/07/28 02:15:14;;;;;;;3.30;3.00;;;;;;;12.91;57.59;94882.03;5091142;28;20020;-75
2023/07/28 02:17:39;;;;;;;3.78;3.05;;;;;;;12.92;56.98;94881.06;5090101;28;20036;-75
2023/07/28 02:20:05;;;;;;;4.22;3.10;;;;;;;13.01;56.96;94886.41;5091540;28;20036;-76
2023/07/28 02:22:31;;;;;;;5.45;3.10;;;;;;;13.01;56.79;94876.81;5091442;28;20089;-76
2023/07/28 02:25:00;;;;;;;3.65;3.00;;;;;;;12.85;56.73;94861.75;5089899;28;20024;-76
2023/07/28 02:27:25;;;;;;;3.78;2.90;;;;;;;13.08;57.02;94890.09;5091287;28;20433;-75
2023/07/28 02:29:51;;;;;;;4.60;3.17;;;;;;;13.02;57.16;94888.88;5090329;28;20024;-76
2023/07/28 02:32:16;;;;;;;3.55;3.25;;;;;;;12.88;57.28;94884.09;5091402;28;20039;-76
2023/07/28 02:34:41;;;;;;;4.95;3.03;;;;;;;12.87;57.10;94882.44;5089813;28;20028;-76
2023/07/28 02:37:07;;;;;;;3.58;3.08;;;;;;;13.11;56.91;94880.22;5089912;28;20036;-75
2023/07/28 02:39:32;;;;;;;3.33;3.00;;;;;;;12.96;56.69;94863.38;5091409;28;20031;-76
2023/07/28 02:41:58;;;;;;;3.22;2.78;;;;;;;13.02;57.00;94881.06;5094002;28;20379;-76
2023/07/28 02:44:23;;;;;;;3.55;3.10;;;;;;;13.02;57.82;94896.72;5093878;28;20036;-76
2023/07/28 02:46:48;;;;;;;3.83;3.20;;;;;;;12.83;57.98;94883.69;5077021;28;20043;-75
2023/07/28 02:49:14;;;;;;;8.73;3.13;;;;;;;12.78;58.60;94891.91;5095206;28;20024;-76
2023/07/28 02:51:39;;;;;;;3.80;3.10;;;;;;;12.70;58.41;94895.25;5092182;28;20272;-76
2023/07/28 02:54:05;;;;;;;3.60;3.30;;;;;;;12.59;58.53;94886.72;5056744;28;20052;-76
2023/07/28 02:56:34;;;;;;;3.40;3.10;;;;;;;12.74;58.17;94895.78;5057076;28;20036;-76
2023/07/28 02:58:59;;;;;;;3.47;3.17;;;;;;;12.70;58.10;94878.75;5057405;28;20036;-75
2023/07/28 03:01:25;;;;;;;3.58;3.03;;;;;;;12.68;57.98;94885.91;5039829;28;20119;-75
2023/07/28 03:03:50;;;;;;;3.50;2.90;;;;;;;12.57;57.78;94870.41;5073207;28;20039;-76
2023/07/28 03:06:16;;;;;;;3.92;3.08;;;;;;;12.65;57.52;94868.78;5074619;28;20028;-76
2023/07/28 03:08:42;;;;;;;3.60;3.30;;;;;;;12.56;58.15;94876.56;5073160;28;20437;-76
2023/07/28 03:11:07;;;;;;;3.35;3.05;;;;;;;12.63;57.81;94864.66;5091340;28;20485;-76
2023/07/28 03:13:32;;;;;;;3.40;3.10;;;;;;;12.73;57.73;94886.28;5076530;28;20036;-75
2023/07/28 03:15:58;;;;;;;5.13;3.20;;;;;;;12.61;57.59;94877.00;5093426;28;20020;-76
2023/07/28 03:18:23;;;;;;;3.50;3.00;;;;;;;12.62;57.70;94886.44;5076571;28;20040;-76
2023/07/28 03:20:49;;;;;;;3.55;3.13;;;;;;;12.66;57.51;94878.22;5076304;28;20028;-76
2023/07/28 03:23:14;;;;;;;4.80;2.70;;;;;;;12.75;57.55;94889.59;5076262;28;20036;-76
2023/07/28 03:25:39;;;;;;;5.95;2.92;;;;;;;12.76;57.88;94893.88;5093372;28;20020;-76
2023/07/28 03:28:05;;;;;;;3.17;2.88;;;;;;;12.62;58.40;94899.47;5093229;28;20044;-76
2023/07/28 03:30:30;;;;;;;3.38;3.08;;;;;;;12.65;58.26;94897.44;5094672;28;20497;-76
2023/07/28 03:32:56;;;;;;;3.22;2.90;;;;;;;12.55;58.74;94901.00;5059328;28;20409;-75
2023/07/28 03:35:21;;;;;;;3.70;3.03;;;;;;;12.46;58.82;94898.25;5093204;28;20028;-75
2023/07/28 03:37:47;;;;;;;4.22;3.10;;;;;;;12.52;58.54;94907.31;5093168;28;20127;-76
2023/07/28 03:40:12;;;;;;;3.30;3.00;;;;;;;12.67;58.75;94907.72;5093222;28;20035;-76
2023/07/28 03:42:37;;;;;;;3.25;2.83;;;;;;;12.64;58.56;94913.19;5092704;28;20173;-76
2023/07/28 03:45:03;;;;;;;4.18;2.90;;;;;;;12.39;59.70;94906.72;5076352;28;20055;-76
2023/07/28 03:47:28;;;;;;;3.42;3.13;;;;;;;12.33;59.63;94913.31;5092777;28;20039;-75
2023/07/28 03:49:54;;;;;;;3.10;2.80;;;;;;;12.47;59.15;94920.72;5076139;28;20036;-76
2023/07/28 03:52:19;;;;;;;3.97;2.90;;;;;;;12.46;58.78;94919.09;5092750;28;20683;-76
2023/07/28 03:54:45;;;;;;;3.78;3.20;;;;;;;12.50;58.63;94914.41;5092847;28;20058;-76
2023/07/28 03:57:10;;;;;;;3.50;3.20;;;;;;;12.55;57.88;94908.81;5093833;28;20031;-75
2023/07/28 03:59:36;;;;;;;4.97;3.30;;;;;;;12.47;58.22;94905.09;5075321;28;20083;-75
2023/07/28 04:02:01;;;;;;;3.65;3.35;;;;;;;12.44;58.26;94902.75;5092536;28;20409;-76
2023/07/28 04:04:26;;;;;;;3.95;3.17;;;;;;;12.49;57.69;94912.78;5092102;28;20051;-75
2023/07/28 04:06:55;;;;;;;3.40;3.10;;;;;;;12.45;58.13;94914.00;5092099;28;20024;-75
2023/07/28 04:09:20;;;;;;;4.93;3.35;;;;;;;12.47;57.26;94914.69;5092151;28;20059;-75
2023/07/28 04:11:45;;;;;;;3.28;2.90;;;;;;;12.47;57.34;94912.91;5092101;28;20032;-75
2023/07/28 04:14:11;;;;;;;4.07;3.00;;;;;;;12.65;57.06;94927.91;5092316;28;20201;-76
2023/07/28 04:16:36;;;;;;;3.28;2.97;;;;;;;12.85;56.27;94929.53;5091927;28;20035;-75
2023/07/28 04:19:02;;;;;;;3.42;3.13;;;;;;;13.58;54.54;94926.41;5092156;28;20044;-75
2023/07/28 04:21:27;;;;;;;3.85;2.83;;;;;;;14.81;51.51;94919.94;5092127;28;20081;-75
2023/07/28 04:23:53;;;;;;;3.25;2.85;;;;;;;15.99;48.43;94913.34;5092221;28;20395;-76
2023/07/28 04:26:18;;;;;;;5.68;3.85;;;;;;;16.90;46.51;94910.00;5091924;28;20035;-76
2023/07/28 04:28:44;;;;;;;3.08;2.50;;;;;;;17.71;44.68;94910.91;5074837;28;20053;-76
2023/07/28 04:31:09;;;;;;;3.00;2.65;;;;;;;18.70;41.89;94920.03;5075013;28;20028;-76
2023/07/28 04:33:35;;;;;;;3.05;2.58;;;;;;;19.40;40.35;94905.84;5092056;28;20629;-76
2023/07/28 04:36:04;;;;;;;2.95;2.30;;;;;;;20.14;38.47;94897.16;5091080;28;20033;-77
2023/07/28 04:38:29;;;;;;;2.63;2.30;;;;;;;20.77;37.69;94893.03;5093223;28;20028;-76
2023/07/28 04:40:55;;;;;;;2.53;2.20;;;;;;;21.05;36.59;94887.00;5093118;28;20024;-76
2023/07/28 04:43:20;;;;;;;3.10;2.17;;;;;;;21.75;35.96;94907.28;5074981;28;20410;-77
2023/07/28 04:45:45;;;;;;;2.75;2.10;;;;;;;22.20;35.15;94907.75;5079099;28;20036;-77
2023/07/28 04:48:11;;;;;;;2.45;2.03;;;;;;;22.40;33.98;94901.72;5074423;28;20054;-77
2023/07/28 04:50:36;;;;;;;2.42;2.20;;;;;;;22.50;34.32;94899.53;5074903;28;20470;-77
2023/07/28 04:53:02;;;;;;;2.25;1.92;;;;;;;22.90;33.20;94910.22;5074750;28;20066;-77
2023/07/28 04:55:27;;;;;;;2.80;2.20;;;;;;;23.24;33.10;94904.00;5072389;28;20429;-76
2023/07/28 04:57:53;;;;;;;5.57;2.03;;;;;;;23.43;32.98;94905.03;5089747;28;20036;-77
2023/07/28 05:00:19;;;;;;;2.92;2.30;;;;;;;23.24;32.48;94909.31;5095979;28;20043;-77
2023/07/28 05:02:44;;;;;;;2.55;1.92;;;;;;;22.45;33.76;94901.97;5091095;28;20541;-77
2023/07/28 05:05:10;;;;;;;2.40;2.10;;;;;;;22.09;34.76;94903.00;5095456;28;20420;-77
2023/07/28 05:07:35;;;;;;;3.78;1.65;;;;;;;21.95;34.70;94907.38;5074091;28;20067;-78
2023/07/28 05:10:00;;;;;;;2.22;1.55;;;;;;;21.70;35.12;94912.31;5101636;28;20481;-77
2023/07/28 05:12:26;;;;;;;3.85;1.80;;;;;;;21.60;35.24;94909.22;5101530;28;20077;-78
2023/07/28 05:14:51;;;;;;;2.70;1.92;;;;;;;21.41;35.44;94905.41;5074048;28;20032;-78
2023/07/28 05:17:17;;;;;;;3.58;2.00;;;;;;;20.84;36.62;94916.84;5071248;28;20068;-78
2023/07/28 05:19:43;;;;;;;2.47;2.00;;;;;;;20.79;36.29;94904.22;5084032;28;20060;-77
2023/07/28 05:22:09;;;;;;;2.70;2.15;;;;;;;20.73;36.50;94897.06;5090656;28;20032;-78
2023/07/28 05:24:34;;;;;;;5.70;2.15;;;;;;;20.68;36.49;94916.09;5090848;28;20933;-78
2023/07/28 05:26:59;;;;;;;2.72;2.33;;;;;;;20.40;37.30;94908.03;5072963;28;20028;-78
2023/07/28 05:29:25;;;;;;;3.80;2.30;;;;;;;20.27;37.82;94915.78;5092089;28;20031;-78
2023/07/28 05:31:50;;;;;;;5.00;2.60;;;;;;;20.22;38.73;94915.53;5074143;28;20047;-78
2023/07/28 05:34:16;;;;;;;6.72;3.13;;;;;;;19.92;39.88;94910.28;5091059;28;20024;-77
2023/07/28 05:36:42;;;;;;;5.45;2.85;;;;;;;20.12;39.77;94907.91;5089968;28;20081;-78
2023/07/28 05:39:08;;;;;;;7.35;3.10;;;;;;;20.47;39.40;94905.47;5086911;28;20032;-78
2023/07/28 05:41:33;;;;;;;4.55;3.20;;;;;;;20.37;39.26;94908.41;5057367;28;20020;-77
2023/07/28 05:43:58;;;;;;;7.63;3.10;;;;;;;19.93;40.27;94879.47;5090877;28;20379;-78
2023/07/28 05:46:24;;;;;;;5.68;3.08;;;;;;;20.15;40.42;94904.09;5087226;28;20032;-74
2023/07/28 05:48:49;;;;;;;8.15;3.05;;;;;;;20.00;40.59;94907.56;5067635;28;20039;-77
2023/07/28 05:51:15;;;;;;;4.80;3.03;;;;;;;19.63;40.94;94882.88;5090666;28;20032;-79
2023/07/28 05:53:40;;;;;;;4.78;3.17;;;;;;;19.87;41.36;94907.38;5073713;28;20478;-77
2023/07/28 05:56:06;;;;;;;4.60;3.17;;;;;;;20.09;40.59;94905.63;5090329;28;20058;-77
2023/07/28 05:58:31;;;;;;;5.97;3.35;;;;;;;20.09;40.30;94890.63;5090522;28;20024;-77
2023/07/28 06:00:57;;;;;;;4.40;3.13;;;;;;;20.14;40.98;94897.16;5073822;28;20043;-76
2023/07/28 06:03:22;;;;;;;5.32;3.47;;;;;;;20.12;40.78;94884.19;5073601;28;20032;-77
2023/07/28 06:05:48;;;;;;;7.90;3.53;;;;;;;19.85;41.45;94883.81;5090490;28;20032;-79
2023/07/28 06:08:13;;;;;;;5.97;3.63;;;;;;;20.00;41.99;94901.44;5072698;28;20524;-80
2023/07/28 06:10:39;;;;;;;4.25;3.85;;;;;;;19.67;42.92;94879.91;5090438;28;20036;-80
2023/07/28 06:13:04;;;;;;;12.48;3.55;;;;;;;19.71;43.11;94886.47;5073118;28;20024;-81
2023/07/28 06:15:30;;;;;;;5.57;3.80;;;;;;;19.67;42.94;94886.03;5087438;28;20032;-80
2023/07/28 06:17:55;;;;;;;5.30;3.53;;;;;;;19.99;42.78;94887.44;5086675;28;20036;-80
2023/07/28 06:20:21;;;;;;;7.90;3.55;;;;;;;19.58;42.98;94865.97;5080008;28;20036;-81
2023/07/28 06:22:46;;;;;;;6.63;3.42;;;;;;;19.73;42.50;94874.75;5092667;28;20057;-80
2023/07/28 06:25:11;;;;;;;13.20;3.53;;;;;;;19.77;42.23;94877.81;5104152;28;20429;-77
2023/07/28 06:27:38;;;;;;;6.15;3.22;;;;;;;19.77;41.28;94854.09;5087344;28;20024;-78
2023/07/28 06:30:04;;;;;;;5.13;3.70;;;;;;;19.88;41.44;94882.63;5087705;28;20032;-78
2023/07/28 06:32:30;;;;;;;8.27;3.25;;;;;;;19.91;41.14;94876.19;5071296;28;20030;-78
2023/07/28 06:34:57;;;;;;;7.05;4.07;;;;;;;19.95;41.21;94877.47;5088971;28;20476;-76
2023/07/28 06:37:23;;;;;;;6.07;3.50;;;;;;;19.98;41.14;94883.19;5089236;28;20047;-78
2023/07/28 06:39:49;;;;;;;4.95;3.17;;;;;;;19.84;41.13;94868.22;5073195;28;20024;-77
2023/07/28 06:42:16;;;;;;;6.53;2.88;;;;;;;20.23;40.30;94873.16;5089668;28;20027;-78
2023/07/28 06:44:41;;;;;;;5.80;3.10;;;;;;;20.13;41.00;94871.81;5091419;28;20038;-77
2023/07/28 06:47:07;;;;;;;5.82;2.90;;;;;;;20.14;40.51;94874.25;5089608;28;20044;-77
2023/07/28 06:49:32;;;;;;;5.20;3.22;;;;;;;20.17;40.53;94870.41;5087901;28;20036;-78
2023/07/28 06:51:58;;;;;;;3.97;2.83;;;;;;;20.09;40.03;94863.44;5088230;28;20088;-78
2023/07/28 06:54:24;;;;;;;5.78;3.00;;;;;;;20.16;40.09;94852.97;5089931;28;20032;-78
2023/07/28 06:56:50;;;;;;;5.85;2.97;;;;;;;20.25;39.99;94871.16;5090061;28;20028;-77
2023/07/28 06:59:15;;;;;;;6.28;3.08;;;;;;;20.28;40.37;94869.94;5090008;28;20028;-77
2023/07/28 07:01:40;;;;;;;4.25;3.00;;;;;;;20.06;40.04;94875.19;5089777;28;20531;-77
2023/07/28 07:04:06;;;;;;;3.58;2.83;;;;;;;20.00;39.95;94802.09;5073387;28;20028;-78
2023/07/28 07:06:32;;;;;;;5.05;2.88;;;;;;;20.64;39.07;94871.78;5091051;28;20032;-76
2023/07/28 07:08:57;;;;;;;4.45;2.83;;;;;;;20.60;39.50;94875.81;5090991;28;20078;-78
2023/07/28 07:11:22;;;;;;;4.55;2.67;;;;;;;20.61;39.25;94862.41;5089735;28;20111;-78
2023/07/28 07:13:48;;;;;;;6.13;2.80;;;;;;;20.62;39.30;94857.97;5091422;28;20497;-78
2023/07/28 07:16:16;;;;;;;4.97;2.90;;;;;;;20.54;39.11;94866.81;5072915;28;20492;-78
2023/07/28 07:18:43;;;;;;;9.20;2.97;;;;;;;20.79;39.49;94869.91;5073033;28;20036;-77
2023/07/28 07:21:08;;;;;;;4.70;2.90;;;;;;;20.80;39.25;94862.81;5072788;28;20032;-77
2023/07/28 07:23:34;;;;;;;3.67;2.58;;;;;;;20.78;39.23;94864.81;5091347;28;20035;-78
2023/07/28 07:25:59;;;;;;;5.55;2.80;;;;;;;20.87;38.71;94867.16;5093201;28;20032;-78
2023/07/28 07:28:25;;;;;;;5.15;3.00;;;;;;;20.88;38.68;94866.13;5094540;28;20459;-78
2023/07/28 07:30:50;;;;;;;5.82;3.00;;;;;;;20.98;38.88;94858.72;5059485;28;20028;-78
2023/07/28 07:33:16;;;;;;;5.13;2.95;;;;;;;21.08;38.88;94865.50;5093457;28;20020;-78
2023/07/28 07:35:41;;;;;;;4.22;2.92;;;;;;;21.12;37.81;94859.66;5093420;28;20055;-77
2023/07/28 07:38:08;;;;;;;4.90;2.70;;;;;;;21.36;38.37;94868.97;5094531;28;20493;-78
2023/07/28 07:40:35;;;;;;;4.75;2.88;;;;;;;21.41;38.25;94879.81;5059835;28;20518;-78
2023/07/28 07:43:02;;;;;;;5.78;3.00;;;;;;;20.83;38.77;94873.00;5094466;28;20028;-77
2023/07/28 07:45:27;;;;;;;6.68;3.10;;;;;;;21.19;38.64;94871.06;5093155;28;20417;-78
2023/07/28 07:47:53;;;;;;;4.00;2.95;;;;;;;21.27;38.07;94879.88;5093171;28;20036;-77
2023/07/28 07:50:18;;;;;;;4.28;2.88;;;;;;;21.30;38.71;94882.94;5094065;28;20035;-78
2023/07/28 07:52:44;;;;;;;4.63;2.90;;;;;;;20.74;38.31;94867.03;5094283;28;20043;-77
2023/07/28 07:55:11;;;;;;;3.15;2.70;;;;;;;21.05;38.66;94879.09;5076139;28;20035;-77
2023/07/28 07:57:36;;;;;;;6.88;3.00;;;;;;;21.22;38.48;94880.44;5092961;28;20332;-78
2023/07/28 08:00:02;;;;;;;3.22;2.78;;;;;;;21.42;37.94;94889.38;5093746;28;20036;-77
2023/07/28 08:02:27;;;;;;;5.18;3.13;;;;;;;21.47;37.59;94877.41;5059078;28;20103;-78
2023/07/28 08:04:55;;;;;;;3.20;2.30;;;;;;;21.72;37.44;94881.22;5092620;28;20047;-77
2023/07/28 08:07:22;;;;;;;4.22;2.50;;;;;;;21.75;37.58;94880.84;5093589;28;20020;-77
2023/07/28 08:09:47;;;;;;;3.55;2.80;;;;;;;21.99;36.95;94884.03;5092341;28;20028;-78
2023/07/28 08:12:13;;;;;;;3.78;2.63;;;;;;;21.97;37.06;94889.50;5092398;28;20032;-77
2023/07/28 08:14:38;;;;;;;4.75;2.70;;;;;;;21.64;37.11;94884.03;5075560;28;20024;-77
2023/07/28 08:17:04;;;;;;;3.97;2.60;;;;;;;22.03;36.91;94882.63;5092350;28;20387;-77
2023/07/28 08:19:29;;;;;;;3.65;2.50;;;;;;;22.03;37.05;94882.63;5093566;28;20032;-77
2023/07/28 08:21:54;;;;;;;4.22;2.70;;;;;;;22.28;36.48;94881.13;5075331;28;20513;-77
2023/07/28 08:24:20;;;;;;;4.57;2.42;;;;;;;22.19;36.14;94863.81;5058471;28;20032;-78
2023/07/28 08:26:45;;;;;;;3.42;2.70;;;;;;;22.64;35.98;94877.38;5075100;28;20043;-78
2023/07/28 08:29:11;;;;;;;6.32;3.25;;;;;;;22.67;36.00;94876.16;5093135;28;20042;-78
2023/07/28 08:31:36;;;;;;;3.92;2.60;;;;;;;22.53;36.37;94872.66;5075385;28;20032;-78
2023/07/28 08:34:02;;;;;;;4.18;2.50;;;;;;;22.75;35.71;94873.34;5092110;28;20016;-77
2023/07/28 08:36:28;;;;;;;5.70;2.40;;;;;;;22.87;35.91;94873.56;5075074;28;20056;-77
2023/07/28 08:38:53;;;;;;;4.05;2.45;;;;;;;22.70;35.19;94863.34;5074619;28;20039;-77
2023/07/28 08:41:19;;;;;;;4.40;2.65;;;;;;;22.87;35.58;94858.50;5091970;28;20032;-78
2023/07/28 08:43:44;;;;;;;2.97;2.50;;;;;;;22.79;35.38;94868.44;5091912;28;20028;-78
2023/07/28 08:46:10;;;;;;;3.10;2.40;;;;;;;22.93;35.39;94856.88;5091833;28;20505;-77
2023/07/28 08:48:35;;;;;;;5.38;2.40;;;;;;;22.99;35.55;94858.75;5074983;28;20035;-77
2023/07/28 08:51:02;;;;;;;5.28;2.53;;;;;;;23.01;35.80;94859.34;5093004;28;20039;-77
2023/07/28 08:53:27;;;;;;;4.88;2.58;;;;;;;23.10;35.40;94858.13;5091445;28;20028;-78
2023/07/28 08:55:53;;;;;;;3.80;2.50;;;;;;;23.33;35.31;94847.13;5092706;28;20036;-78
2023/07/28 08:58:19;;;;;;;3.22;2.45;;;;;;;23.34;34.81;94843.44;5091383;28;20024;-77
2023/07/28 09:00:51;;;;;;;3.67;2.50;;;;;;;23.51;34.02;94849.13;5091364;28;20109;-77
2023/07/28 09:03:17;;;;;;;5.30;2.58;;;;;;;23.67;35.06;94842.59;5075512;28;20032;-77
2023/07/28 09:05:48;;;;;;;4.03;2.50;;;;;;;23.61;33.99;94836.28;5074454;28;20482;-78
2023/07/28 09:08:14;;;;;;;3.58;2.40;;;;;;;23.76;34.06;94832.59;5074366;28;20056;-77
2023/07/28 09:10:50;;;;;;;2.90;2.20;;;;;;;23.84;34.13;94824.41;5091249;28;20024;-77
2023/07/28 09:13:16;;;;;;;2.45;2.17;;;;;;;24.08;33.43;94818.41;5074638;28;20452;-77
2023/07/28 09:15:42;;;;;;;4.47;2.35;;;;;;;23.97;33.35;94821.72;5074408;28;20036;-77
2023/07/28 09:18:20;;;;;;;3.17;2.20;;;;;;;24.15;32.71;94813.06;5057029;28;20541;-77
2023/07/28 09:20:45;;;;;;;3.45;2.30;;;;;;;24.12;32.08;94813.50;5090818;28;20036;-77
2023/07/28 09:23:13;;;;;;;4.25;2.17;;;;;;;24.29;32.89;94813.81;5074079;28;20028;-77
2023/07/28 09:25:38;;;;;;;2.45;2.05;;;;;;;24.35;32.48;94797.06;5073876;28;20053;-77
2023/07/28 09:28:04;;;;;;;3.10;2.25;;;;;;;24.37;32.37;94792.34;5091981;28;20032;-77
2023/07/28 09:30:44;;;;;;;4.78;2.40;;;;;;;24.27;32.36;94794.66;5090716;28;20501;-78
2023/07/28 09:33:10;;;;;;;3.08;2.20;;;;;;;24.43;32.58;94795.97;5073944;28;20039;-77
2023/07/28 09:35:35;;;;;;;3.58;2.35;;;;;;;24.34;32.39;94787.47;5073752;28;20040;-77
2023/07/28 09:38:00;;;;;;;3.80;2.00;;;;;;;24.51;32.30;94779.84;5056785;28;20494;-77
2023/07/28 09:40:27;;;;;;;2.95;2.10;;;;;;;24.75;31.97;94776.41;5073666;28;20035;-78
2023/07/28 09:42:54;;;;;;;4.03;2.20;;;;;;;24.71;31.38;94779.69;5090701;28;20508;-78
2023/07/28 09:45:20;;;;;;;2.92;2.17;;;;;;;24.67;31.57;94778.50;5090578;28;20029;-77
2023/07/28 09:47:46;;;;;;;3.60;2.42;;;;;;;24.96;30.84;94769.91;5073664;28;20186;-77
2023/07/28 09:50:14;;;;;;;3.92;2.03;;;;;;;25.05;31.37;94775.78;5056012;28;20417;-77
2023/07/28 09:52:44;;;;;;;2.72;2.20;;;;;;;24.86;30.26;94769.59;5073632;28;20024;-78
2023/07/28 09:55:11;;;;;;;4.25;2.28;;;;;;;24.84;31.24;94766.31;5091759;28;20441;-77
2023/07/28 09:57:38;;;;;;;2.70;2.13;;;;;;;25.04;31.84;94765.34;5090199;28;20056;-78
2023/07/28 10:00:06;;;;;;;3.05;2.10;;;;;;;25.02;30.50;94760.25;5090117;28;20036;-77
2023/07/28 10:02:32;;;;;;;3.08;2.40;;;;;;;25.09;30.79;94771.63;5073640;28;20046;-78
2023/07/28 10:04:57;;;;;;;4.30;2.40;;;;;;;25.14;31.39;94747.06;5073313;28;20028;-77
2023/07/28 10:07:23;;;;;;;3.50;2.20;;;;;;;25.45;29.87;94762.13;5089745;28;20417;-77
2023/07/28 10:09:48;;;;;;;5.75;2.38;;;;;;;25.40;29.81;94760.13;5073471;28;20088;-77
2023/07/28 10:12:24;;;;;;;3.75;2.30;;;;;;;25.33;30.69;94750.59;5073229;28;20028;-77
2023/07/28 10:14:59;;;;;;;2.90;2.20;;;;;;;24.91;30.72;94755.66;5074147;28;20055;-77
2023/07/28 10:17:30;;;;;;;5.28;2.53;;;;;;;25.17;31.21;94754.63;5057080;28;20122;-77
2023/07/28 10:19:55;;;;;;;;;;;;;;;25.32;31.52;94755.09;5090530;28;20063;-77
2023/07/28 10:22:21;;;;;;;4.07;2.67;;;;;;;25.44;31.30;94747.22;5072898;28;20359;-78
2023/07/28 10:24:56;;;;;;;3.60;2.40;;;;;;;25.48;30.09;94748.38;5091161;28;20418;-77
2023/07/28 10:27:33;;;;;;;3.45;2.28;;;;;;;25.68;31.07;94756.13;5056731;28;20020;-78
2023/07/28 10:29:59;;;;;;;3.67;2.45;;;;;;;25.41;30.56;94731.72;5089848;28;20649;-78
2023/07/28 10:32:31;;;;;;;7.18;2.60;;;;;;;25.54;30.36;94746.69;5073073;28;20468;-77
2023/07/28 10:35:00;;;;;;;3.78;2.40;;;;;;;25.82;30.25;94741.63;5089876;28;20055;-78
2023/07/28 10:37:26;;;;;;;3.85;2.20;;;;;;;25.71;29.51;94721.09;5056269;28;20085;-77
2023/07/28 10:40:26;;;;;;;3.17;2.30;;;;;;;25.72;29.06;94738.72;5090001;28;20028;-78
2023/07/28 10:42:51;;;;;;;3.08;2.53;;;;;;;25.60;28.79;94724.50;5091210;28;20024;-78
2023/07/28 10:45:17;;;;;;;4.60;2.40;;;;;;;25.50;28.88;94733.03;5056179;28;20563;-78
2023/07/28 10:47:43;;;;;;;3.85;2.40;;;;;;;25.70;28.65;94724.00;5089635;28;20406;-78
2023/07/28 10:50:12;;;;;;;3.47;2.20;;;;;;;25.87;29.50;94730.38;5056111;28;20028;-78
2023/07/28 10:52:44;;;;;;;4.38;2.70;;;;;;;26.02;28.87;94717.50;5072708;28;20066;-78
2023/07/28 10:55:14;;;;;;;4.05;2.40;;;;;;;26.07;27.84;94719.47;5072845;28;20035;-77
2023/07/28 10:57:43;;;;;;;;;;;;;;;26.39;27.13;94716.56;5056936;28;20059;-75
2023/07/28 11:00:09;;;;;;;4.30;2.67;;;;;;;26.13;28.14;94709.75;5090054;28;19917;-75
2023/07/28 11:02:54;;;;;;;5.00;2.50;;;;;;;26.15;28.28;94703.19;5093390;28;20039;-75
2023/07/28 11:05:21;;;;;;;3.75;2.28;;;;;;;25.82;28.49;94695.59;5076492;28;20529;-75
2023/07/28 11:07:47;;;;;;;5.22;2.40;;;;;;;25.99;29.29;94690.50;5076428;28;20052;-76
2023/07/28 11:10:13;;;;;;;3.97;2.58;;;;;;;25.93;29.11;94686.91;5076209;28;20517;-75
2023/07/28 11:12:47;;;;;;;4.32;2.50;;;;;;;26.07;29.45;94684.88;5094448;28;20117;-76
2023/07/28 11:15:13;;;;;;;5.15;2.40;;;;;;;26.21;28.92;94686.28;5076438;28;20028;-75
2023/07/28 11:17:39;;;;;;;4.72;2.67;;;;;;;26.32;27.97;94674.06;5076224;28;20035;-75
2023/07/28 11:20:18;;;;;;;3.92;2.47;;;;;;;26.59;28.20;94674.50;5076171;28;20077;-75
2023/07/28 11:22:44;;;;;;;4.45;2.50;;;;;;;26.48;27.86;94670.75;5077758;28;20031;-75
2023/07/28 11:25:10;;;;;;;12.43;2.83;;;;;;;26.36;27.70;94672.59;5076102;28;20043;-75
2023/07/28 11:27:36;;;;;;;4.60;2.47;;;;;;;26.68;27.83;94670.44;5075863;28;20039;-75
2023/07/28 11:30:03;;;;;;;5.50;2.40;;;;;;;26.62;27.56;94666.03;5092734;28;20035;-76